Time;durP1;ratioP1;P1;durP2;ratioP2;P2;SDS_P1;SDS_P2;PMS_P1;PMS_P2;Temp;Humidity;BMP_temperature;BMP_pressure;BME280_temperature;BME280_humidity;BME280_pressure;Samples;Min_cycle;Max_cycle;Signal;HPM_P1;HPM_P2
2021/04/10 00:00:26;;;;;;;4.50;1.03;;;;;;;5.99;59.83;99636.28;5075579;28;20194;-72
2021/04/10 00:02:54;;;;;;;5.87;0.90;;;;;;;6.05;60.59;99642.03;5081625;28;20607;-72
2021/04/10 00:05:22;;;;;;;4.67;0.83;;;;;;;5.95;60.87;99642.78;5086502;28;20213;-73
2021/04/10 00:07:49;;;;;;;1.87;0.77;;;;;;;5.94;60.56;99644.59;5087815;28;20310;-72
2021/04/10 00:10:17;;;;;;;5.27;1.00;;;;;;;5.83;61.89;99645.28;5078876;28;20656;-72
2021/04/10 00:12:44;;;;;;;2.80;0.63;;;;;;;5.77;61.70;99640.31;5078172;28;20195;-73
2021/04/10 00:15:16;;;;;;;1.27;0.63;;;;;;;5.84;60.94;99657.63;5081640;28;20583;-72
2021/04/10 00:17:43;;;;;;;1.37;0.80;;;;;;;5.78;61.47;99658.00;5080325;28;20197;-72
2021/04/10 00:20:14;;;;;;;3.63;1.27;;;;;;;5.78;60.73;99655.34;5076276;28;20217;-72
2021/04/10 00:22:41;;;;;;;5.13;0.80;;;;;;;5.85;60.50;99659.34;5076544;28;20221;-73
2021/04/10 00:25:10;;;;;;;2.77;0.57;;;;;;;5.72;61.67;99647.78;5085298;28;20205;-72
2021/04/10 00:27:37;;;;;;;2.87;0.77;;;;;;;5.77;61.22;99666.97;5075182;28;20543;-73
2021/04/10 00:30:06;;;;;;;0.73;0.40;;;;;;;5.62;62.02;99673.31;5085634;28;20232;-73
2021/04/10 00:32:34;;;;;;;2.43;0.80;;;;;;;5.66;61.99;99685.47;5079922;28;20193;-67
2021/04/10 00:35:01;;;;;;;0.33;0.33;;;;;;;5.51;61.67;99671.34;5080293;28;20620;-66
2021/04/10 00:37:29;;;;;;;3.60;0.90;;;;;;;5.35;63.04;99686.56;5083066;28;20659;-66
2021/04/10 00:39:56;;;;;;;2.10;0.60;;;;;;;5.29;63.36;99673.66;5084655;28;20393;-67
2021/04/10 00:42:24;;;;;;;1.90;0.83;;;;;;;5.09;63.04;99658.94;5080736;28;20277;-67
2021/04/10 00:44:52;;;;;;;2.77;0.83;;;;;;;5.30;62.92;99683.34;5081133;28;20864;-67
2021/04/10 00:47:19;;;;;;;1.30;0.70;;;;;;;5.05;63.79;99684.03;5074235;28;20200;-67
2021/04/10 00:49:46;;;;;;;0.90;0.30;;;;;;;5.09;63.65;99690.88;5082443;28;20203;-68
2021/04/10 00:52:15;;;;;;;2.10;0.80;;;;;;;5.03;63.02;99701.91;5079655;28;20232;-67
2021/04/10 00:54:45;;;;;;;5.77;0.90;;;;;;;5.09;63.50;99695.34;5089057;28;20208;-67
2021/04/10 00:57:12;;;;;;;1.87;0.50;;;;;;;4.91;64.03;99702.66;5074107;28;20292;-67
2021/04/10 00:59:40;;;;;;;1.13;0.40;;;;;;;4.82;64.36;99697.88;5085082;28;20226;-67
2021/04/10 01:02:08;;;;;;;4.43;0.57;;;;;;;4.68;65.05;99706.72;5080880;28;20229;-67
2021/04/10 01:04:36;;;;;;;2.47;0.80;;;;;;;4.62;65.32;99699.97;5075476;28;20184;-67
2021/04/10 01:07:03;;;;;;;0.50;0.30;;;;;;;4.50;65.42;99698.03;5073723;28;20233;-67
2021/04/10 01:09:31;;;;;;;7.87;0.80;;;;;;;4.54;65.29;99694.22;5074903;28;20810;-67
2021/04/10 01:12:12;;;;;;;0.57;0.40;;;;;;;4.57;64.95;99690.53;5070660;28;20198;-67
2021/04/10 01:14:51;;;;;;;5.67;1.00;;;;;;;4.51;65.33;99689.09;5079160;28;20203;-67
2021/04/10 01:17:25;;;;;;;2.17;1.10;;;;;;;4.54;65.97;99699.53;5081029;28;20209;-66
2021/04/10 01:20:31;;;;;;;6.53;1.27;;;;;;;4.56;66.03;99699.44;5074265;28;20239;-66
2021/04/10 01:23:32;;;;;;;3.60;0.80;;;;;;;4.60;65.00;99704.53;5041992;28;20574;-67
2021/04/10 01:26:14;;;;;;;4.60;0.70;;;;;;;4.53;64.68;99681.03;5079992;28;20729;-73
2021/04/10 01:28:52;;;;;;;5.27;0.87;;;;;;;4.56;64.47;99702.97;5079775;28;20203;-73
2021/04/10 01:31:28;;;;;;;14.10;1.23;;;;;;;4.26;64.39;99646.31;5073754;28;20205;-67
2021/04/10 01:34:00;;;;;;;8.27;0.70;;;;;;;4.55;65.24;99700.41;5085982;28;20194;-67
2021/04/10 01:36:32;;;;;;;5.50;1.00;;;;;;;4.43;65.63;99694.03;5077909;28;20223;-67
2021/04/10 01:39:02;;;;;;;5.20;1.27;;;;;;;4.41;64.75;99687.94;5070401;28;20219;-67
2021/04/10 01:41:31;;;;;;;6.43;0.87;;;;;;;4.38;65.47;99698.75;5078527;28;20197;-67
2021/04/10 01:44:01;;;;;;;3.00;0.70;;;;;;;3.32;64.64;99525.31;5072787;28;20770;-67
2021/04/10 01:46:29;;;;;;;10.40;0.97;;;;;;;4.26;65.49;99702.13;5099382;28;20694;-67
2021/04/10 01:48:59;;;;;;;1.70;0.67;;;;;;;4.26;64.89;99695.00;5082875;28;20236;-66
2021/04/10 01:51:27;;;;;;;7.60;1.10;;;;;;;4.26;64.89;99702.97;5081682;28;20266;-67
2021/04/10 01:53:56;;;;;;;5.70;0.83;;;;;;;4.14;65.17;99702.84;5073368;28;20200;-67
2021/04/10 01:56:24;;;;;;;3.40;0.87;;;;;;;4.07;65.61;99701.50;5084976;28;20204;-67
2021/04/10 01:58:55;;;;;;;4.83;0.73;;;;;;;4.09;65.56;99703.13;5084777;28;20200;-67
2021/04/10 02:01:41;;;;;;;1.77;0.80;;;;;;;4.06;65.46;99705.97;5088101;28;20207;-68
2021/04/10 02:04:10;;;;;;;2.97;0.70;;;;;;;4.03;65.71;99707.00;5078550;28;20250;-67
2021/04/10 02:06:38;;;;;;;2.07;0.70;;;;;;;3.95;65.63;99705.69;5070855;28;20217;-67
2021/04/10 02:09:10;;;;;;;6.07;1.10;;;;;;;3.60;65.26;99647.50;5082763;28;20229;-67
2021/04/10 02:11:51;;;;;;;1.50;0.40;;;;;;;3.92;65.33;99712.06;5080315;28;20208;-67
2021/04/10 02:14:27;;;;;;;3.37;0.80;;;;;;;3.92;65.43;99716.50;5078784;28;20252;-67
2021/04/10 02:16:56;;;;;;;5.10;0.83;;;;;;;3.97;65.41;99709.97;5079951;28;20203;-67
2021/04/10 02:19:31;;;;;;;4.20;0.80;;;;;;;3.93;65.62;99707.59;5086931;28;20188;-67
2021/04/10 02:22:04;;;;;;;7.83;0.67;;;;;;;3.88;65.84;99715.81;5084890;28;20201;-67
2021/04/10 02:24:33;;;;;;;1.67;0.93;;;;;;;3.83;66.38;99709.06;5085469;28;20189;-73
2021/04/10 02:27:05;;;;;;;3.20;0.70;;;;;;;3.80;65.67;99720.72;5077448;28;20216;-73
2021/04/10 02:29:39;;;;;;;2.97;0.67;;;;;;;3.76;66.00;99713.88;5075279;28;20213;-67
2021/04/10 02:32:12;;;;;;;4.23;0.73;;;;;;;3.57;65.47;99687.50;5076347;28;20991;-67
2021/04/10 02:34:52;;;;;;;2.70;0.80;;;;;;;3.72;65.61;99709.69;5072278;28;20223;-67
2021/04/10 02:37:19;;;;;;;1.13;0.67;;;;;;;3.73;66.11;99711.41;5072552;28;20659;-67
2021/04/10 02:39:50;;;;;;;3.30;0.70;;;;;;;3.79;66.04;99718.16;5085748;28;20202;-68
2021/04/10 02:42:20;;;;;;;7.83;1.00;;;;;;;3.72;65.74;99721.16;5073651;28;20745;-67
2021/04/10 02:44:53;;;;;;;2.80;0.90;;;;;;;3.74;65.78;99739.66;5081289;28;20208;-67
2021/04/10 02:47:27;;;;;;;5.03;0.90;;;;;;;3.74;65.96;99729.91;5073692;28;20676;-68
2021/04/10 02:49:58;;;;;;;4.70;1.23;;;;;;;3.69;65.87;99731.97;5080887;28;20208;-67
2021/04/10 02:52:36;;;;;;;2.50;0.50;;;;;;;3.68;65.77;99734.69;5076675;28;20207;-74
2021/04/10 02:55:07;;;;;;;2.80;0.80;;;;;;;3.38;65.63;99693.00;5072525;28;20262;-67
2021/04/10 02:57:35;;;;;;;5.53;0.97;;;;;;;3.59;66.22;99737.84;5090090;28;20704;-72
2021/04/10 03:00:06;;;;;;;7.53;1.13;;;;;;;3.67;65.89;99751.53;5079526;28;20204;-73
2021/04/10 03:02:41;;;;;;;2.27;0.60;;;;;;;3.59;65.97;99745.81;5072866;28;20200;-73
2021/04/10 03:05:13;;;;;;;5.60;0.80;;;;;;;3.07;65.84;99648.72;5071268;28;20292;-74
2021/04/10 03:07:45;;;;;;;4.80;1.13;;;;;;;3.48;66.05;99726.97;5103928;27;20254;-74
2021/04/10 03:10:15;;;;;;;3.27;0.90;;;;;;;3.53;66.05;99733.75;5069575;28;20204;-67
2021/04/10 03:12:44;;;;;;;3.87;0.60;;;;;;;3.53;65.98;99735.53;5074852;28;20709;-67
2021/04/10 03:15:15;;;;;;;11.30;0.70;;;;;;;3.57;65.65;99742.38;5077834;28;20205;-66
2021/04/10 03:17:47;;;;;;;1.17;0.83;;;;;;;3.55;65.58;99738.97;5079290;28;20292;-67
2021/04/10 03:20:17;;;;;;;5.47;0.87;;;;;;;3.47;65.39;99730.56;5084145;28;20198;-67
2021/04/10 03:22:47;;;;;;;1.07;0.50;;;;;;;3.43;65.95;99741.34;5083673;28;20224;-67
2021/04/10 03:25:20;;;;;;;1.07;0.73;;;;;;;3.53;65.88;99759.44;5084448;28;20204;-67
2021/04/10 03:27:50;;;;;;;4.33;0.90;;;;;;;3.38;66.08;99762.00;5072510;28;20201;-67
2021/04/10 03:30:20;;;;;;;4.93;0.60;;;;;;;3.46;65.54;99766.00;5073096;28;20223;-67
2021/04/10 03:32:51;;;;;;;1.33;0.50;;;;;;;3.50;65.71;99760.44;5080864;28;20199;-68
2021/04/10 03:35:20;;;;;;;5.00;0.77;;;;;;;3.48;65.63;99767.63;5080525;28;20261;-73
2021/04/10 03:37:50;;;;;;;5.93;0.83;;;;;;;3.49;65.54;99774.66;5077824;28;20204;-73
2021/04/10 03:40:20;;;;;;;2.83;0.67;;;;;;;3.48;65.49;99772.94;5072219;28;20629;-73
2021/04/10 03:42:51;;;;;;;1.93;0.40;;;;;;;3.38;65.32;99774.41;5072104;28;20253;-73
2021/04/10 03:45:24;;;;;;;5.33;0.63;;;;;;;3.39;65.67;99773.47;5066923;28;20304;-73
2021/04/10 03:47:57;;;;;;;2.03;0.60;;;;;;;3.33;65.75;99769.31;5077635;28;20204;-73
2021/04/10 03:50:34;;;;;;;0.23;0.23;;;;;;;3.44;65.45;99779.38;5074562;28;20577;-73
2021/04/10 03:53:01;;;;;;;0.67;0.63;;;;;;;3.42;65.32;99781.25;5072218;28;20291;-73
2021/04/10 03:55:29;;;;;;;2.87;0.70;;;;;;;3.49;65.44;99795.03;5079519;28;20208;-73
2021/04/10 03:57:59;;;;;;;2.53;0.73;;;;;;;3.43;65.59;99789.13;5080178;28;20281;-73
2021/04/10 04:00:28;;;;;;;1824.17;773.33;;;;;;;3.46;65.50;99781.94;5078405;28;20223;-73
2021/04/10 04:03:00;;;;;;;66.37;24.67;;;;;;;3.49;65.18;99798.53;5073671;28;20208;-73
2021/04/10 04:05:27;;;;;;;8.10;3.00;;;;;;;3.47;65.58;99794.25;5084836;28;20659;-73
2021/04/10 04:07:54;;;;;;;5.07;1.87;;;;;;;3.48;65.81;99803.94;5076730;28;20235;-73
2021/04/10 04:10:23;;;;;;;1.10;1.00;;;;;;;3.50;65.48;99804.72;5081216;28;20619;-74
2021/04/10 04:12:50;;;;;;;1.30;1.07;;;;;;;3.34;65.55;99780.78;5080814;28;20808;-74
2021/04/10 04:15:18;;;;;;;1.73;0.93;;;;;;;3.54;65.17;99808.91;5083832;28;20191;-73
2021/04/10 04:17:45;;;;;;;0.40;0.40;;;;;;;3.62;65.55;99812.84;5087883;28;20687;-68
2021/04/10 04:20:14;;;;;;;2.83;1.53;;;;;;;3.67;65.25;99813.50;5087280;28;20558;-74
2021/04/10 04:22:41;;;;;;;3.40;0.90;;;;;;;3.74;64.78;99816.66;5085470;28;20219;-68
2021/04/10 04:25:10;;;;;;;4.33;2.60;;;;;;;3.82;65.00;99819.75;5085188;28;20203;-68
2021/04/10 04:27:37;;;;;;;3.63;1.10;;;;;;;3.94;64.57;99811.09;5076923;28;20213;-68
2021/04/10 04:30:05;;;;;;;3.87;1.33;;;;;;;3.98;65.03;99811.75;5081346;28;20230;-73
2021/04/10 04:32:32;;;;;;;1.30;1.20;;;;;;;4.07;64.70;99811.28;5082336;28;20202;-73
2021/04/10 04:35:00;;;;;;;3.37;1.50;;;;;;;4.11;64.57;99817.25;5080547;28;20209;-73
2021/04/10 04:37:28;;;;;;;7.63;1.90;;;;;;;4.21;64.18;99829.94;5086530;28;20287;-74
2021/04/10 04:39:55;;;;;;;7.63;3.93;;;;;;;4.31;63.77;99832.94;5081353;28;20215;-74
2021/04/10 04:42:22;;;;;;;1.67;1.50;;;;;;;4.12;63.75;99803.03;5078734;28;20200;-73
2021/04/10 04:44:50;;;;;;;0.93;0.80;;;;;;;4.33;63.94;99829.25;5078438;28;20224;-73
2021/04/10 04:47:17;;;;;;;6.40;1.20;;;;;;;4.43;63.93;99840.22;5079421;28;20319;-73
2021/04/10 04:49:44;;;;;;;4.77;1.77;;;;;;;4.48;63.61;99837.28;5081559;28;20212;-73
2021/04/10 04:52:11;;;;;;;7.80;0.80;;;;;;;4.56;62.96;99846.53;5083077;28;20188;-73
2021/04/10 04:54:39;;;;;;;1.77;0.90;;;;;;;4.63;62.90;99863.88;5075895;28;20215;-74
2021/04/10 04:57:07;;;;;;;1.90;0.87;;;;;;;4.64;62.87;99862.91;5076607;28;20228;-74
2021/04/10 04:59:34;;;;;;;4.07;1.33;;;;;;;4.64;62.61;99870.91;5084583;28;20692;-74
2021/04/10 05:02:01;;;;;;;4.20;2.40;;;;;;;4.62;62.61;99875.44;5078028;28;20681;-74
2021/04/10 05:04:28;;;;;;;1.07;0.67;;;;;;;4.66;62.61;99879.63;5074753;28;20211;-73
2021/04/10 05:06:55;;;;;;;0.90;0.70;;;;;;;4.78;62.12;99883.38;5080432;28;20768;-73
2021/04/10 05:09:22;;;;;;;3.60;0.47;;;;;;;4.85;62.30;99886.53;5073243;28;20331;-73
2021/04/10 05:11:51;;;;;;;1.37;0.77;;;;;;;4.95;62.39;99890.41;5082209;28;20224;-73
2021/04/10 05:14:18;;;;;;;4.43;3.00;;;;;;;5.07;62.40;99900.31;5083827;28;20205;-73
2021/04/10 05:16:46;;;;;;;4.53;1.37;;;;;;;5.25;62.06;99895.72;5076795;28;20194;-73
2021/04/10 05:19:13;;;;;;;3.47;0.83;;;;;;;5.33;61.57;99901.44;5086437;28;20637;-73
2021/04/10 05:21:40;;;;;;;4.23;0.60;;;;;;;5.38;61.46;99899.34;5082757;28;20206;-73
2021/04/10 05:24:08;;;;;;;1.10;0.63;;;;;;;5.50;61.05;99903.06;5081817;28;20232;-73
2021/04/10 05:26:35;;;;;;;2.23;0.50;;;;;;;5.57;60.61;99905.28;5077329;28;20570;-73
2021/04/10 05:29:04;;;;;;;0.70;0.53;;;;;;;5.64;59.93;99921.72;5098195;28;20276;-67
2021/04/10 05:31:31;;;;;;;3.20;0.53;;;;;;;5.63;60.15;99909.38;5080592;28;20225;-67
2021/04/10 05:33:58;;;;;;;1.40;0.53;;;;;;;5.64;59.92;99921.72;5078649;28;20671;-67
2021/04/10 05:36:25;;;;;;;0.80;0.40;;;;;;;5.67;60.07;99926.88;5071658;28;20292;-67
2021/04/10 05:38:53;;;;;;;0.73;0.37;;;;;;;5.65;59.65;99919.94;5083278;28;20576;-67
2021/04/10 05:41:20;;;;;;;1.50;0.60;;;;;;;5.67;59.80;99942.84;5078079;28;20231;-67
2021/04/10 05:43:47;;;;;;;2.63;0.60;;;;;;;5.77;59.74;99928.00;5082312;28;20661;-67
2021/04/10 05:46:16;;;;;;;3.27;0.40;;;;;;;5.78;59.08;99935.06;5088523;28;20222;-66
2021/04/10 05:48:43;;;;;;;1.17;0.33;;;;;;;5.89;58.85;99932.63;5089407;28;20578;-66
2021/04/10 05:51:10;;;;;;;1.47;0.40;;;;;;;5.90;59.21;99947.69;5083678;28;20201;-67
2021/04/10 05:53:38;;;;;;;0.87;0.40;;;;;;;5.96;58.37;99945.56;5081468;28;20289;-66
2021/04/10 05:56:06;;;;;;;2.13;0.53;;;;;;;6.00;58.49;99945.28;5076438;28;20186;-66
2021/04/10 05:58:33;;;;;;;6.13;0.60;;;;;;;6.03;59.15;99957.56;5073313;28;20208;-67
2021/04/10 06:01:01;;;;;;;3.60;0.40;;;;;;;5.97;58.74;99949.97;5074310;28;20240;-67
2021/04/10 06:03:30;;;;;;;0.27;0.20;;;;;;;6.17;58.21;99941.59;5085009;28;20202;-67
2021/04/10 06:05:57;;;;;;;1.97;0.40;;;;;;;6.23;57.90;99957.19;5085465;28;20205;-67
2021/04/10 06:08:25;;;;;;;2.47;0.60;;;;;;;6.26;57.60;99965.00;5083256;28;20398;-67
2021/04/10 06:10:52;;;;;;;3.03;0.60;;;;;;;6.18;57.76;99960.16;5083687;28;20631;-73
2021/04/10 06:13:20;;;;;;;4.00;0.47;;;;;;;6.19;58.13;99967.19;5082103;28;20220;-73
2021/04/10 06:15:50;;;;;;;3.47;0.30;;;;;;;6.22;58.10;99971.47;5083285;28;20206;-73
2021/04/10 06:18:18;;;;;;;1.33;0.60;;;;;;;6.26;57.80;99943.66;5077214;28;20612;-72
2021/04/10 06:20:46;;;;;;;6.27;0.90;;;;;;;6.31;56.88;99978.03;5078963;28;20290;-72
2021/04/10 06:23:13;;;;;;;0.60;0.57;;;;;;;6.10;57.48;99930.44;5079294;28;20642;-72
2021/04/10 06:25:40;;;;;;;2.13;0.37;;;;;;;6.36;57.60;99984.78;5075139;28;20372;-73
2021/04/10 06:28:08;;;;;;;0.20;0.20;;;;;;;6.57;57.08;99987.06;5074447;28;20242;-73
2021/04/10 06:30:35;;;;;;;1.90;0.47;;;;;;;6.69;56.49;99975.59;5074216;28;20207;-72
2021/04/10 06:33:02;;;;;;;1.07;0.40;;;;;;;6.71;55.50;99998.56;5081515;28;20284;-73
2021/04/10 06:35:29;;;;;;;1.50;0.50;;;;;;;6.73;56.12;99991.31;5081343;28;20195;-72
2021/04/10 06:37:57;;;;;;;1.33;0.30;;;;;;;6.82;56.63;99998.75;5078595;28;20200;-73
2021/04/10 06:40:25;;;;;;;1.60;0.53;;;;;;;7.05;55.63;99985.72;5081480;28;20294;-72
2021/04/10 06:42:54;;;;;;;1.23;0.43;;;;;;;7.18;54.73;99985.75;5079541;28;20264;-73
2021/04/10 06:45:22;;;;;;;0.47;0.30;;;;;;;7.54;55.13;99988.66;5075747;28;20207;-68
2021/04/10 06:47:51;;;;;;;1.43;0.50;;;;;;;7.83;54.82;99993.81;5077881;28;20549;-67
2021/04/10 06:50:18;;;;;;;0.47;0.30;;;;;;;8.22;53.17;100001.75;5075279;28;20287;-67
2021/04/10 06:52:47;;;;;;;3.77;0.47;;;;;;;8.70;51.50;100018.00;5080087;28;20206;-67
2021/04/10 06:55:17;;;;;;;1.80;0.70;;;;;;;8.82;51.33;100013.59;5075650;28;20250;-69
2021/04/10 06:57:56;;;;;;;1.30;0.77;;;;;;;9.11;50.65;100030.22;5081596;28;20207;-71
2021/04/10 07:00:25;;;;;;;2.60;0.50;;;;;;;9.07;50.89;100021.56;5077432;28;20221;-66
2021/04/10 07:02:53;;;;;;;2.60;0.70;;;;;;;9.30;50.38;100025.22;5078949;28;20221;-73
2021/04/10 07:05:21;;;;;;;2.00;0.50;;;;;;;9.41;49.35;100027.94;5083058;28;20378;-76
2021/04/10 07:07:49;;;;;;;2.47;0.27;;;;;;;9.19;49.42;100027.84;5075372;28;20244;-74
2021/04/10 07:10:17;;;;;;;0.47;0.20;;;;;;;9.03;49.43;100015.56;5081106;28;20219;-74
2021/04/10 07:12:45;;;;;;;3.40;0.70;;;;;;;9.06;49.50;100032.38;5072214;28;20195;-73
2021/04/10 07:15:14;;;;;;;0.20;0.20;;;;;;;9.11;50.24;100047.13;5079517;28;20287;-75
2021/04/10 07:17:41;;;;;;;2.53;0.40;;;;;;;9.26;49.57;100046.03;5081871;28;20251;-75
2021/04/10 07:20:26;;;;;;;5.53;0.53;;;;;;;9.44;48.66;100045.63;5073451;28;20281;-73
2021/04/10 07:22:58;;;;;;;2.00;0.60;;;;;;;9.57;49.03;100039.25;5083624;28;20192;-73
2021/04/10 07:25:27;;;;;;;1.23;0.37;;;;;;;9.68;49.50;100046.47;5086668;28;20215;-72
2021/04/10 07:27:55;;;;;;;0.93;0.50;;;;;;;9.80;48.81;100055.44;5087336;28;20230;-73
2021/04/10 07:30:23;;;;;;;0.13;0.13;;;;;;;9.93;47.82;100049.00;5086944;28;20210;-72
2021/04/10 07:32:50;;;;;;;2.50;0.50;;;;;;;10.01;47.97;100053.78;5082207;28;20196;-73
2021/04/10 07:35:18;;;;;;;0.73;0.60;;;;;;;10.04;47.50;100048.19;5072828;28;20286;-69
2021/04/10 07:37:48;;;;;;;3.80;0.50;;;;;;;10.26;47.88;100063.53;5080746;28;20198;-72
2021/04/10 07:40:24;;;;;;;4.73;0.70;;;;;;;10.57;46.98;100073.56;5075904;28;20218;-68
2021/04/10 07:42:53;;;;;;;0.37;0.37;;;;;;;10.79;45.50;100050.41;5082747;28;20588;-68
2021/04/10 07:45:29;;;;;;;2.50;0.50;;;;;;;10.92;45.80;100072.59;5076259;28;20276;-67
2021/04/10 07:48:04;;;;;;;1.53;0.50;;;;;;;11.03;46.12;100075.31;5076170;28;20223;-68
2021/04/10 07:50:34;;;;;;;0.17;0.13;;;;;;;11.18;45.31;100067.81;5080544;28;20214;-73
2021/04/10 07:53:19;;;;;;;2.13;0.50;;;;;;;11.22;44.22;100085.41;5071741;28;20678;-73
2021/04/10 07:55:47;;;;;;;0.40;0.40;;;;;;;11.36;44.72;100087.84;5078297;28;20398;-73
2021/04/10 07:58:23;;;;;;;5.53;0.87;;;;;;;11.42;44.31;100098.09;5079455;28;20219;-72
2021/04/10 08:00:52;;;;;;;1.37;0.30;;;;;;;11.25;44.61;100105.81;5082769;28;20199;-73
2021/04/10 08:03:29;;;;;;;2.50;0.40;;;;;;;11.11;43.57;100098.88;5078753;28;20250;-73
2021/04/10 08:06:11;;;;;;;2.97;0.50;;;;;;;10.73;43.87;100050.91;5071011;28;20294;-73
2021/04/10 08:08:54;;;;;;;1.53;0.50;;;;;;;10.95;43.57;100123.41;5069857;28;20233;-68
2021/04/10 08:11:33;;;;;;;1.80;0.53;;;;;;;10.99;45.11;100124.00;5074661;28;20244;-67
2021/04/10 08:14:03;;;;;;;1.43;0.60;;;;;;;11.23;45.40;100108.63;5070486;28;20292;-67
2021/04/10 08:16:30;;;;;;;0.53;0.23;;;;;;;11.28;44.63;100113.63;5073617;28;20291;-73
2021/04/10 08:18:59;;;;;;;0.73;0.40;;;;;;;11.55;44.29;100129.34;5079989;28;20205;-73
2021/04/10 08:21:45;;;;;;;1.63;1.00;;;;;;;11.44;44.03;100119.47;5072805;28;20205;-73
2021/04/10 08:24:30;;;;;;;0.30;0.30;;;;;;;11.27;44.39;100087.72;5079362;28;20221;-74
2021/04/10 08:26:59;;;;;;;1.37;0.50;;;;;;;11.54;43.76;100135.69;5075590;28;20285;-66
2021/04/10 08:29:27;;;;;;;1.20;0.27;;;;;;;11.62;43.79;100146.69;5080444;28;20208;-66
2021/04/10 08:31:56;;;;;;;0.60;0.50;;;;;;;11.75;43.94;100159.00;5080716;28;20200;-67
2021/04/10 08:34:23;;;;;;;1.07;0.80;;;;;;;11.78;43.50;100160.63;5082669;28;20717;-68
2021/04/10 08:36:53;;;;;;;1.50;0.50;;;;;;;11.67;43.88;100153.41;5084296;28;20843;-67
2021/04/10 08:39:27;;;;;;;2.63;0.40;;;;;;;11.88;43.25;100169.63;5075986;28;20223;-66
2021/04/10 08:41:56;;;;;;;0.77;0.40;;;;;;;11.65;42.87;100170.66;5087901;28;20296;-67
2021/04/10 08:44:30;;;;;;;0.20;0.20;;;;;;;11.82;43.13;100172.84;5083774;28;20229;-68
2021/04/10 08:46:58;;;;;;;0.77;0.40;;;;;;;11.90;42.65;100167.69;5074916;28;20248;-67
2021/04/10 08:49:28;;;;;;;0.50;0.30;;;;;;;11.84;42.66;100188.84;5075066;28;20777;-67
2021/04/10 08:52:05;;;;;;;3.20;0.60;;;;;;;11.83;42.64;100193.38;5087625;28;20228;-68
2021/04/10 08:54:33;;;;;;;0.23;0.23;;;;;;;11.84;42.80;100187.03;5076708;28;20208;-72
2021/04/10 08:57:06;;;;;;;0.97;0.50;;;;;;;11.73;42.76;100184.31;5078910;28;20196;-71
2021/04/10 08:59:40;;;;;;;3.30;0.67;;;;;;;11.99;42.19;100185.78;5080016;28;20203;-72
2021/04/10 09:02:11;;;;;;;0.30;0.30;;;;;;;12.02;42.61;100204.34;5086435;28;20310;-73
2021/04/10 09:05:04;;;;;;;7.20;0.60;;;;;;;11.68;42.05;100157.81;5085423;28;20207;-72
2021/04/10 09:08:07;;;;;;;1.90;0.40;;;;;;;12.20;42.47;100211.88;5090056;28;20227;-72
2021/04/10 09:10:48;;;;;;;1.23;0.30;;;;;;;12.12;42.02;100204.44;5076756;28;20205;-73
2021/04/10 09:13:41;;;;;;;0.30;0.30;;;;;;;12.04;41.62;100218.53;5078651;28;20412;-73
2021/04/10 09:16:37;;;;;;;0.93;0.50;;;;;;;12.18;42.77;100230.00;5072791;28;20210;-71
2021/04/10 09:19:13;;;;;;;0.73;0.30;;;;;;;12.21;42.38;100218.97;5083049;28;20299;-72
2021/04/10 09:21:42;;;;;;;0.97;0.50;;;;;;;12.33;42.37;100224.19;5077677;28;20222;-72
2021/04/10 09:24:38;;;;;;;1.10;0.47;;;;;;;12.10;41.98;100195.63;5089767;28;20190;-72
2021/04/10 09:27:11;;;;;;;1.90;0.40;;;;;;;12.43;42.19;100226.97;5076438;28;20774;-72
2021/04/10 09:29:47;;;;;;;1.90;0.67;;;;;;;12.49;42.29;100229.13;5078536;28;20205;-72
2021/04/10 09:32:29;;;;;;;3.67;0.70;;;;;;;12.75;41.42;100238.56;5075172;28;20192;-72
2021/04/10 09:34:58;;;;;;;0.60;0.20;;;;;;;12.52;40.72;100210.03;5078552;28;20204;-72
2021/04/10 09:37:59;;;;;;;1.77;0.30;;;;;;;12.87;41.28;100235.84;5082239;28;20257;-72
2021/04/10 09:40:50;;;;;;;1.47;0.50;;;;;;;13.08;41.67;100244.75;5073568;28;20289;-74
2021/04/10 09:43:20;;;;;;;1.73;0.47;;;;;;;13.22;40.87;100233.69;5084525;28;20242;-73
2021/04/10 09:45:48;;;;;;;0.20;0.20;;;;;;;12.94;40.44;100205.53;5079106;28;20204;-73
2021/04/10 09:48:21;;;;;;;0.40;0.33;;;;;;;13.32;40.48;100244.50;5078556;28;20305;-73
2021/04/10 09:51:04;;;;;;;1.17;0.47;;;;;;;13.40;38.45;100254.63;5090018;28;20582;-73
2021/04/10 09:53:32;;;;;;;0.30;0.30;;;;;;;13.56;39.72;100257.69;5088020;28;20195;-73
2021/04/10 09:56:02;;;;;;;0.10;0.10;;;;;;;13.75;40.04;100267.69;5075688;28;20225;-73
2021/04/10 09:58:37;;;;;;;2.17;0.50;;;;;;;13.61;39.69;100277.03;5077722;28;20293;-72
2021/04/10 10:01:07;;;;;;;0.67;0.20;;;;;;;13.60;39.75;100283.41;5077609;28;20223;-74
2021/04/10 10:03:35;;;;;;;0.33;0.33;;;;;;;13.35;39.05;100223.50;5079966;28;20217;-75
2021/04/10 10:06:31;;;;;;;0.73;0.53;;;;;;;13.57;37.61;100281.00;5078826;28;20189;-71
2021/04/10 10:08:58;;;;;;;0.80;0.80;;;;;;;13.52;39.14;100280.53;5082105;28;20232;-73
2021/04/10 10:11:28;;;;;;;0.60;0.50;;;;;;;13.65;38.93;100279.31;5077277;28;20228;-74
2021/04/10 10:13:56;;;;;;;1.60;0.37;;;;;;;13.91;39.23;100301.31;5079620;28;20558;-74
2021/04/10 10:16:25;;;;;;;0.83;0.60;;;;;;;13.88;39.64;100296.19;5091205;28;20605;-75
2021/04/10 10:18:54;;;;;;;0.50;0.30;;;;;;;13.84;39.05;100283.94;5083632;28;20694;-75
2021/04/10 10:21:23;;;;;;;0.77;0.57;;;;;;;13.97;38.51;100300.75;5090528;28;20211;-70
2021/04/10 10:23:53;;;;;;;0.50;0.50;;;;;;;13.78;38.63;100276.41;5087102;28;20200;-70
2021/04/10 10:26:22;;;;;;;0.63;0.37;;;;;;;13.95;38.59;100313.53;5085159;28;20219;-75
2021/04/10 10:28:53;;;;;;;0.93;0.37;;;;;;;13.95;38.64;100308.13;5083271;28;20661;-73
2021/04/10 10:31:22;;;;;;;1.87;0.70;;;;;;;13.83;37.51;100295.75;5079006;28;20612;-75
2021/04/10 10:33:51;;;;;;;0.90;0.80;;;;;;;13.81;39.05;100256.38;5086692;28;20199;-75
2021/04/10 10:36:21;;;;;;;0.83;0.50;;;;;;;14.35;38.46;100322.59;5082385;28;20195;-70
2021/04/10 10:38:50;;;;;;;0.83;0.30;;;;;;;14.17;36.72;100317.03;5088662;28;20295;-75
2021/04/10 10:41:18;;;;;;;0.83;0.50;;;;;;;14.41;38.68;100314.81;5074711;28;20190;-75
2021/04/10 10:43:46;;;;;;;0.40;0.40;;;;;;;14.29;38.06;100332.13;5072021;28;20883;-75
2021/04/10 10:46:18;;;;;;;1.43;0.60;;;;;;;14.53;38.38;100313.72;5083865;28;20315;-70
2021/04/10 10:48:46;;;;;;;0.57;0.50;;;;;;;14.58;35.52;100333.06;5086426;28;20223;-75
2021/04/10 10:51:15;;;;;;;0.83;0.67;;;;;;;14.85;38.35;100345.91;5079346;28;20650;-75
2021/04/10 10:53:45;;;;;;;0.63;0.50;;;;;;;14.91;38.23;100352.59;5075268;28;20265;-75
2021/04/10 10:56:15;;;;;;;2.33;0.70;;;;;;;14.98;37.74;100348.31;5082796;28;20197;-74
2021/04/10 10:58:45;;;;;;;0.40;0.40;;;;;;;14.93;37.72;100334.38;5082604;28;20204;-69
2021/04/10 11:01:23;;;;;;;0.40;0.40;;;;;;;14.81;36.02;100332.81;5073224;28;20251;-71
2021/04/10 11:03:54;;;;;;;0.40;0.40;;;;;;;15.00;37.63;100351.78;5076338;28;20359;-74
2021/04/10 11:06:24;;;;;;;0.53;0.40;;;;;;;15.15;35.77;100344.94;5070194;28;20300;-74
2021/04/10 11:09:00;;;;;;;0.40;0.30;;;;;;;15.44;37.42;100361.13;5077727;28;20235;-74
2021/04/10 11:11:31;;;;;;;0.43;0.20;;;;;;;15.48;36.74;100349.00;5086605;28;20428;-74
2021/04/10 11:13:59;;;;;;;0.23;0.20;;;;;;;15.57;36.82;100354.53;5074908;28;20273;-68
2021/04/10 11:16:27;;;;;;;1.23;0.30;;;;;;;15.43;35.83;100362.13;5073189;28;20696;-74
2021/04/10 11:18:56;;;;;;;0.27;0.17;;;;;;;15.56;37.11;100375.34;5079846;28;20664;-74
2021/04/10 11:21:26;;;;;;;0.83;0.43;;;;;;;15.44;35.68;100381.94;5075718;28;20218;-74
2021/04/10 11:24:10;;;;;;;0.33;0.27;;;;;;;15.45;36.84;100348.44;5076521;28;20198;-69
2021/04/10 11:26:52;;;;;;;0.53;0.50;;;;;;;15.70;35.50;100385.78;5074682;28;20194;-69
2021/04/10 11:29:26;;;;;;;0.20;0.20;;;;;;;15.88;35.73;100387.72;5072233;28;20208;-74
2021/04/10 11:32:11;;;;;;;0.93;0.50;;;;;;;15.84;35.81;100395.28;5072805;28;20675;-74
2021/04/10 11:34:41;;;;;;;0.40;0.40;;;;;;;15.73;35.68;100400.88;5070633;28;20227;-74
2021/04/10 11:37:11;;;;;;;0.57;0.30;;;;;;;15.93;35.56;100393.56;5069806;28;20271;-74
2021/04/10 11:39:50;;;;;;;0.63;0.20;;;;;;;15.97;34.53;100385.00;5080369;28;20199;-70
2021/04/10 11:42:25;;;;;;;2.93;0.43;;;;;;;16.02;35.94;100387.25;5077815;28;20695;-74
2021/04/10 11:44:53;;;;;;;1.03;0.37;;;;;;;15.99;33.58;100391.13;5076234;28;20204;-74
2021/04/10 11:47:22;;;;;;;0.57;0.23;;;;;;;15.91;34.78;100398.25;5075287;28;20220;-74
2021/04/10 11:49:49;;;;;;;0.40;0.20;;;;;;;16.15;34.04;100399.44;5068483;28;20596;-70
2021/04/10 11:52:18;;;;;;;0.63;0.30;;;;;;;15.87;34.38;100410.38;5080605;28;20209;-70